sensor_id;sensor_type;location;lat;lon;timestamp;pressure;altitude;pressure_sealevel;temperature;humidity
46223;BME280;31943;51.410;7.564;2023-07-20T00:00:18;100050.03;;;18.46;66.56
46223;BME280;31943;51.410;7.564;2023-07-20T00:02:44;100045.78;;;18.41;66.72
46223;BME280;31943;51.410;7.564;2023-07-20T00:05:13;100044.97;;;18.38;66.64
46223;BME280;31943;51.410;7.564;2023-07-20T00:07:39;100052.81;;;18.42;66.33
46223;BME280;31943;51.410;7.564;2023-07-20T00:10:06;100059.78;;;18.44;65.96
46223;BME280;31943;51.410;7.564;2023-07-20T00:12:31;100058.84;;;18.47;66.00
46223;BME280;31943;51.410;7.564;2023-07-20T00:14:57;100060.59;;;18.46;65.66
46223;BME280;31943;51.410;7.564;2023-07-20T00:17:23;100060.59;;;18.46;65.40
46223;BME280;31943;51.410;7.564;2023-07-20T00:19:50;100052.66;;;18.46;65.33
46223;BME280;31943;51.410;7.564;2023-07-20T00:22:17;100044.72;;;18.48;65.24
46223;BME280;31943;51.410;7.564;2023-07-20T00:24:46;100045.56;;;18.48;65.10
46223;BME280;31943;51.410;7.564;2023-07-20T00:27:11;100050.03;;;18.46;65.05
46223;BME280;31943;51.410;7.564;2023-07-20T00:29:37;100046.53;;;18.46;65.52
46223;BME280;31943;51.410;7.564;2023-07-20T00:32:03;100048.44;;;18.41;65.44
46223;BME280;31943;51.410;7.564;2023-07-20T00:34:29;100048.56;;;18.34;65.41
46223;BME280;31943;51.410;7.564;2023-07-20T00:36:55;100049.47;;;18.35;65.42
46223;BME280;31943;51.410;7.564;2023-07-20T00:39:22;100041.53;;;18.35;65.29
46223;BME280;31943;51.410;7.564;2023-07-20T00:41:48;100046.75;;;18.36;65.53
46223;BME280;31943;51.410;7.564;2023-07-20T00:44:14;100043.22;;;18.37;65.42
46223;BME280;31943;51.410;7.564;2023-07-20T00:46:41;100044.00;;;18.41;65.16
46223;BME280;31943;51.410;7.564;2023-07-20T00:49:07;100043.16;;;18.41;65.15
46223;BME280;31943;51.410;7.564;2023-07-20T00:51:33;100041.34;;;18.43;65.51
46223;BME280;31943;51.410;7.564;2023-07-20T00:53:59;100042.19;;;18.43;65.59
46223;BME280;31943;51.410;7.564;2023-07-20T00:56:26;100041.34;;;18.43;65.80
46223;BME280;31943;51.410;7.564;2023-07-20T00:58:52;100043.06;;;18.44;65.68
46223;BME280;31943;51.410;7.564;2023-07-20T01:01:18;100043.09;;;18.42;65.57
46223;BME280;31943;51.410;7.564;2023-07-20T01:03:43;100041.34;;;18.43;65.62
46223;BME280;31943;51.410;7.564;2023-07-20T01:06:15;100044.81;;;18.45;65.88
46223;BME280;31943;51.410;7.564;2023-07-20T01:09:00;100043.06;;;18.44;65.76
46223;BME280;31943;51.410;7.564;2023-07-20T01:11:36;100035.13;;;18.44;65.92
46223;BME280;31943;51.410;7.564;2023-07-20T01:14:03;100043.97;;;18.43;66.19
46223;BME280;31943;51.410;7.564;2023-07-20T01:16:31;100034.31;;;18.42;66.01
46223;BME280;31943;51.410;7.564;2023-07-20T01:18:58;100040.44;;;18.42;66.40
46223;BME280;31943;51.410;7.564;2023-07-20T01:21:31;100040.44;;;18.42;65.76
46223;BME280;31943;51.410;7.564;2023-07-20T01:30:25;100035.22;;;18.41;66.05
46223;BME280;31943;51.410;7.564;2023-07-20T01:32:58;100035.25;;;18.39;66.10
46223;BME280;31943;51.410;7.564;2023-07-20T01:35:29;100036.16;;;18.38;66.02
46223;BME280;31943;51.410;7.564;2023-07-20T01:37:55;100030.03;;;18.36;66.09
46223;BME280;31943;51.410;7.564;2023-07-20T01:40:22;100027.50;;;18.33;66.10
46223;BME280;31943;51.410;7.564;2023-07-20T01:42:50;100022.31;;;18.28;66.34
46223;BME280;31943;51.410;7.564;2023-07-20T01:45:17;100033.03;;;18.22;66.74
46223;BME280;31943;51.410;7.564;2023-07-20T01:47:44;100030.44;;;18.21;66.86
46223;BME280;31943;51.410;7.564;2023-07-20T01:50:13;100026.09;;;18.18;66.65
46223;BME280;31943;51.410;7.564;2023-07-20T01:52:39;100024.38;;;18.17;66.28
46223;BME280;31943;51.410;7.564;2023-07-20T01:55:06;100022.63;;;18.16;66.26
46223;BME280;31943;51.410;7.564;2023-07-20T01:57:33;100023.59;;;18.13;66.53
46223;BME280;31943;51.410;7.564;2023-07-20T01:59:58;100025.44;;;18.10;66.92
46223;BME280;31943;51.410;7.564;2023-07-20T02:02:26;100025.44;;;18.08;66.91
46223;BME280;31943;51.410;7.564;2023-07-20T02:04:52;100022.94;;;18.04;66.62
46223;BME280;31943;51.410;7.564;2023-07-20T02:07:20;100028.22;;;18.04;66.82
46223;BME280;31943;51.410;7.564;2023-07-20T02:09:45;100025.50;;;18.05;66.45
46223;BME280;31943;51.410;7.564;2023-07-20T02:12:12;100015.84;;;18.06;66.96
46223;BME280;31943;51.410;7.564;2023-07-20T02:14:39;100012.28;;;18.07;67.17
46223;BME280;31943;51.410;7.564;2023-07-20T02:17:05;100008.81;;;18.05;67.08
46223;BME280;31943;51.410;7.564;2023-07-20T02:19:31;100010.59;;;18.04;66.77
46223;BME280;31943;51.410;7.564;2023-07-20T02:21:57;100013.22;;;18.04;66.48
46223;BME280;31943;51.410;7.564;2023-07-20T02:24:25;100007.13;;;18.02;66.77
46223;BME280;31943;51.410;7.564;2023-07-20T02:26:51;100013.44;;;17.95;66.61
46223;BME280;31943;51.410;7.564;2023-07-20T02:29:17;100010.00;;;17.91;66.65
46223;BME280;31943;51.410;7.564;2023-07-20T02:31:44;100005.69;;;17.89;66.62
46223;BME280;31943;51.410;7.564;2023-07-20T02:34:10;100008.41;;;17.86;67.18
46223;BME280;31943;51.410;7.564;2023-07-20T02:36:37;100011.94;;;17.83;67.26
46223;BME280;31943;51.410;7.564;2023-07-20T02:39:03;100004.03;;;17.82;67.19
46223;BME280;31943;51.410;7.564;2023-07-20T02:41:33;100004.94;;;17.82;66.84
46223;BME280;31943;51.410;7.564;2023-07-20T02:43:59;100008.47;;;17.81;67.06
46223;BME280;31943;51.410;7.564;2023-07-20T02:46:25;100009.38;;;17.80;67.06
46223;BME280;31943;51.410;7.564;2023-07-20T02:48:50;100010.31;;;17.77;67.09
46223;BME280;31943;51.410;7.564;2023-07-20T02:51:16;100013.78;;;17.79;67.25
46223;BME280;31943;51.410;7.564;2023-07-20T02:53:42;100014.69;;;17.78;67.38
46223;BME280;31943;51.410;7.564;2023-07-20T02:56:07;100011.19;;;17.78;67.12
46223;BME280;31943;51.410;7.564;2023-07-20T02:58:35;100017.31;;;17.80;67.20
46223;BME280;31943;51.410;7.564;2023-07-20T03:01:01;100017.44;;;17.74;67.25
46223;BME280;31943;51.410;7.564;2023-07-20T03:03:27;100021.88;;;17.72;67.09
46223;BME280;31943;51.410;7.564;2023-07-20T03:05:52;100023.75;;;17.68;67.33
46223;BME280;31943;51.410;7.564;2023-07-20T03:08:18;100032.44;;;17.72;67.34
46223;BME280;31943;51.410;7.564;2023-07-20T03:10:44;100024.47;;;17.73;66.99
46223;BME280;31943;51.410;7.564;2023-07-20T03:13:11;100037.69;;;17.73;67.15
46223;BME280;31943;51.410;7.564;2023-07-20T03:15:39;100041.22;;;17.74;67.29
46223;BME280;31943;51.410;7.564;2023-07-20T03:18:05;100040.31;;;17.73;67.64
46223;BME280;31943;51.410;7.564;2023-07-20T03:20:32;100042.97;;;17.72;67.50
46223;BME280;31943;51.410;7.564;2023-07-20T03:22:58;100040.41;;;17.70;67.69
46223;BME280;31943;51.410;7.564;2023-07-20T03:25:24;100045.81;;;17.64;67.56
46223;BME280;31943;51.410;7.564;2023-07-20T03:27:49;100044.13;;;17.60;67.66
46223;BME280;31943;51.410;7.564;2023-07-20T03:30:15;100036.13;;;17.65;67.60
46223;BME280;31943;51.410;7.564;2023-07-20T03:32:43;100042.13;;;17.71;67.88
46223;BME280;31943;51.410;7.564;2023-07-20T03:35:09;100041.22;;;17.72;67.83
46223;BME280;31943;51.410;7.564;2023-07-20T03:37:36;100043.75;;;17.77;67.71
46223;BME280;31943;51.410;7.564;2023-07-20T03:40:04;100042.81;;;17.79;67.75
46223;BME280;31943;51.410;7.564;2023-07-20T03:42:31;100042.81;;;17.79;67.79
46223;BME280;31943;51.410;7.564;2023-07-20T03:44:56;100047.25;;;17.77;67.82
46223;BME280;31943;51.410;7.564;2023-07-20T03:47:22;100044.72;;;17.74;67.59
46223;BME280;31943;51.410;7.564;2023-07-20T03:49:49;100042.91;;;17.76;67.72
46223;BME280;31943;51.410;7.564;2023-07-20T03:52:15;100042.97;;;17.72;67.72
46223;BME280;31943;51.410;7.564;2023-07-20T03:54:42;100045.00;;;17.62;67.96
46223;BME280;31943;51.410;7.564;2023-07-20T03:57:08;100042.28;;;17.64;67.72
46223;BME280;31943;51.410;7.564;2023-07-20T03:59:33;100043.13;;;17.66;67.73
46223;BME280;31943;51.410;7.564;2023-07-20T04:02:01;100037.78;;;17.69;68.18
46223;BME280;31943;51.410;7.564;2023-07-20T04:04:28;100042.16;;;17.70;67.84
46223;BME280;31943;51.410;7.564;2023-07-20T04:06:56;100048.25;;;17.72;67.81
46223;BME280;31943;51.410;7.564;2023-07-20T04:09:22;100047.50;;;17.68;67.75
46223;BME280;31943;51.410;7.564;2023-07-20T04:11:48;100053.66;;;17.67;67.80
46223;BME280;31943;51.410;7.564;2023-07-20T04:14:13;100060.75;;;17.64;68.01
46223;BME280;31943;51.410;7.564;2023-07-20T04:16:39;100057.28;;;17.62;68.27
46223;BME280;31943;51.410;7.564;2023-07-20T04:19:05;100057.22;;;17.65;67.78
46223;BME280;31943;51.410;7.564;2023-07-20T04:21:31;100053.66;;;17.67;68.22
46223;BME280;31943;51.410;7.564;2023-07-20T04:24:00;100052.78;;;17.67;67.90
46223;BME280;31943;51.410;7.564;2023-07-20T04:26:27;100060.81;;;17.62;67.72
46223;BME280;31943;51.410;7.564;2023-07-20T04:28:53;100052.97;;;17.59;68.07
46223;BME280;31943;51.410;7.564;2023-07-20T04:31:19;100053.81;;;17.59;67.95
46223;BME280;31943;51.410;7.564;2023-07-20T04:33:45;100067.13;;;17.55;68.11
46223;BME280;31943;51.410;7.564;2023-07-20T04:36:10;100061.91;;;17.50;68.18
46223;BME280;31943;51.410;7.564;2023-07-20T04:38:36;100070.66;;;17.54;68.07
46223;BME280;31943;51.410;7.564;2023-07-20T04:41:03;100071.44;;;17.57;68.15
46223;BME280;31943;51.410;7.564;2023-07-20T04:43:29;100071.44;;;17.57;68.18
46223;BME280;31943;51.410;7.564;2023-07-20T04:45:55;100068.00;;;17.54;68.52
46223;BME280;31943;51.410;7.564;2023-07-20T04:48:22;100078.63;;;17.52;68.36
46223;BME280;31943;51.410;7.564;2023-07-20T04:50:48;100066.34;;;17.50;68.70
46223;BME280;31943;51.410;7.564;2023-07-20T04:53:15;100066.25;;;17.54;68.73
46223;BME280;31943;51.410;7.564;2023-07-20T04:55:50;100067.00;;;17.59;68.48
46223;BME280;31943;51.410;7.564;2023-07-20T04:58:17;100068.69;;;17.64;68.23
46223;BME280;31943;51.410;7.564;2023-07-20T05:00:44;100069.50;;;17.66;68.03
46223;BME280;31943;51.410;7.564;2023-07-20T05:03:10;100080.13;;;17.64;68.44
46223;BME280;31943;51.410;7.564;2023-07-20T05:05:38;100082.03;;;17.56;68.97
46223;BME280;31943;51.410;7.564;2023-07-20T05:08:03;100070.75;;;17.49;69.13
46223;BME280;31943;51.410;7.564;2023-07-20T05:10:30;100070.81;;;17.46;69.57
46223;BME280;31943;51.410;7.564;2023-07-20T05:12:56;100073.44;;;17.46;69.46
46223;BME280;31943;51.410;7.564;2023-07-20T05:15:24;100080.47;;;17.47;69.90
46223;BME280;31943;51.410;7.564;2023-07-20T05:17:50;100080.50;;;17.46;69.71
46223;BME280;31943;51.410;7.564;2023-07-20T05:20:16;100081.44;;;17.43;70.24
46223;BME280;31943;51.410;7.564;2023-07-20T05:22:44;100083.22;;;17.43;70.25
46223;BME280;31943;51.410;7.564;2023-07-20T05:25:10;100078.72;;;17.46;70.84
46223;BME280;31943;51.410;7.564;2023-07-20T05:27:37;100088.38;;;17.47;70.76
46223;BME280;31943;51.410;7.564;2023-07-20T05:30:04;100090.94;;;17.50;70.65
46223;BME280;31943;51.410;7.564;2023-07-20T05:32:32;100092.66;;;17.54;70.43
46223;BME280;31943;51.410;7.564;2023-07-20T05:34:59;100091.66;;;17.58;69.93
46223;BME280;31943;51.410;7.564;2023-07-20T05:37:26;100089.88;;;17.61;69.36
46223;BME280;31943;51.410;7.564;2023-07-20T05:39:52;100088.94;;;17.63;69.46
46223;BME280;31943;51.410;7.564;2023-07-20T05:42:18;100091.44;;;17.69;69.76
46223;BME280;31943;51.410;7.564;2023-07-20T05:44:43;100095.75;;;17.72;69.91
46223;BME280;31943;51.410;7.564;2023-07-20T05:47:09;100094.84;;;17.74;69.72
46223;BME280;31943;51.410;7.564;2023-07-20T05:49:37;100101.00;;;17.73;69.86
46223;BME280;31943;51.410;7.564;2023-07-20T05:52:03;100110.72;;;17.71;70.01
46223;BME280;31943;51.410;7.564;2023-07-20T05:54:31;100108.13;;;17.70;69.85
46223;BME280;31943;51.410;7.564;2023-07-20T05:56:57;100111.81;;;17.63;70.24
46223;BME280;31943;51.410;7.564;2023-07-20T05:59:26;100110.16;;;17.57;70.22
46223;BME280;31943;51.410;7.564;2023-07-20T06:01:54;100112.03;;;17.50;70.26
46223;BME280;31943;51.410;7.564;2023-07-20T06:04:20;100123.69;;;17.40;69.92
46223;BME280;31943;51.410;7.564;2023-07-20T06:06:48;100123.84;;;17.32;70.07
46223;BME280;31943;51.410;7.564;2023-07-20T06:09:13;100117.84;;;17.26;70.38
46223;BME280;31943;51.410;7.564;2023-07-20T06:11:39;100131.03;;;17.24;70.51
46223;BME280;31943;51.410;7.564;2023-07-20T06:14:05;100129.34;;;17.22;70.40
46223;BME280;31943;51.410;7.564;2023-07-20T06:16:33;100138.09;;;17.24;70.80
46223;BME280;31943;51.410;7.564;2023-07-20T06:19:00;100144.06;;;17.33;70.89
46223;BME280;31943;51.410;7.564;2023-07-20T06:21:27;100145.84;;;17.31;70.24
46223;BME280;31943;51.410;7.564;2023-07-20T06:23:54;100141.56;;;17.26;69.79
46223;BME280;31943;51.410;7.564;2023-07-20T06:26:20;100148.63;;;17.25;69.74
46223;BME280;31943;51.410;7.564;2023-07-20T06:28:46;100154.00;;;17.19;69.71
46223;BME280;31943;51.410;7.564;2023-07-20T06:31:12;100150.56;;;17.14;70.29
46223;BME280;31943;51.410;7.564;2023-07-20T06:33:39;100150.59;;;17.12;70.27
46223;BME280;31943;51.410;7.564;2023-07-20T06:36:05;100143.59;;;17.11;70.47
46223;BME280;31943;51.410;7.564;2023-07-20T06:38:31;100147.03;;;17.15;70.00
46223;BME280;31943;51.410;7.564;2023-07-20T06:40:58;100146.03;;;17.20;70.25
46223;BME280;31943;51.410;7.564;2023-07-20T06:43:24;100151.28;;;17.24;70.16
46223;BME280;31943;51.410;7.564;2023-07-20T06:45:53;100149.50;;;17.24;69.88
46223;BME280;31943;51.410;7.564;2023-07-20T06:48:20;100138.94;;;17.26;70.22
46223;BME280;31943;51.410;7.564;2023-07-20T06:50:46;100141.44;;;17.32;70.18
46223;BME280;31943;51.410;7.564;2023-07-20T06:53:12;100142.34;;;17.31;69.30
46223;BME280;31943;51.410;7.564;2023-07-20T06:55:38;100138.81;;;17.32;69.74
46223;BME280;31943;51.410;7.564;2023-07-20T06:58:05;100140.50;;;17.34;69.71
46223;BME280;31943;51.410;7.564;2023-07-20T07:00:31;100143.63;;;17.55;69.28
46223;BME280;31943;51.410;7.564;2023-07-20T07:02:57;100150.59;;;18.01;68.78
46223;BME280;31943;51.410;7.564;2023-07-20T07:05:23;100150.28;;;18.15;68.12
46223;BME280;31943;51.410;7.564;2023-07-20T07:07:49;100151.09;;;18.18;67.68
46223;BME280;31943;51.410;7.564;2023-07-20T07:10:16;100152.91;;;18.15;67.44
46223;BME280;31943;51.410;7.564;2023-07-20T07:12:42;100156.63;;;18.08;66.93
46223;BME280;31943;51.410;7.564;2023-07-20T07:15:10;100156.94;;;17.92;66.23
46223;BME280;31943;51.410;7.564;2023-07-20T07:17:35;100165.09;;;17.80;66.95
46223;BME280;31943;51.410;7.564;2023-07-20T07:20:01;100155.78;;;18.06;65.87
46223;BME280;31943;51.410;7.564;2023-07-20T07:22:27;100160.13;;;18.46;65.25
46223;BME280;31943;51.410;7.564;2023-07-20T07:24:53;100158.63;;;18.71;64.87
46223;BME280;31943;51.410;7.564;2023-07-20T07:27:19;100160.78;;;18.91;63.94
46223;BME280;31943;51.410;7.564;2023-07-20T07:29:46;100160.22;;;18.78;63.22
46223;BME280;31943;51.410;7.564;2023-07-20T07:32:14;100159.63;;;18.67;62.56
46223;BME280;31943;51.410;7.564;2023-07-20T07:34:41;100167.75;;;18.58;63.76
46223;BME280;31943;51.410;7.564;2023-07-20T07:37:07;100167.09;;;18.50;63.52
46223;BME280;31943;51.410;7.564;2023-07-20T07:39:33;100175.38;;;18.34;63.49
46223;BME280;31943;51.410;7.564;2023-07-20T07:41:58;100176.97;;;18.42;63.91
46223;BME280;31943;51.410;7.564;2023-07-20T07:44:26;100173.09;;;18.94;61.76
46223;BME280;31943;51.410;7.564;2023-07-20T07:46:52;100175.44;;;19.39;61.00
46223;BME280;31943;51.410;7.564;2023-07-20T07:49:20;100176.28;;;19.72;60.27
46223;BME280;31943;51.410;7.564;2023-07-20T07:51:46;100172.81;;;20.00;59.17
46223;BME280;31943;51.410;7.564;2023-07-20T07:54:15;100178.72;;;20.10;57.45
46223;BME280;31943;51.410;7.564;2023-07-20T07:56:40;100177.56;;;19.89;57.34
46223;BME280;31943;51.410;7.564;2023-07-20T07:59:06;100176.59;;;19.91;57.34
46223;BME280;31943;51.410;7.564;2023-07-20T08:01:32;100173.56;;;20.05;55.91
46223;BME280;31943;51.410;7.564;2023-07-20T08:03:59;100180.22;;;19.89;56.22
46223;BME280;31943;51.410;7.564;2023-07-20T08:06:26;100181.59;;;19.71;56.30
46223;BME280;31943;51.410;7.564;2023-07-20T08:08:52;100182.81;;;19.90;55.88
46223;BME280;31943;51.410;7.564;2023-07-20T08:11:18;100184.19;;;20.04;55.83
46223;BME280;31943;51.410;7.564;2023-07-20T08:13:44;100185.22;;;20.28;55.75
46223;BME280;31943;51.410;7.564;2023-07-20T08:16:10;100194.97;;;20.27;55.98
46223;BME280;31943;51.410;7.564;2023-07-20T08:18:36;100188.47;;;20.08;55.17
46223;BME280;31943;51.410;7.564;2023-07-20T08:21:02;100192.59;;;19.88;55.56
46223;BME280;31943;51.410;7.564;2023-07-20T08:23:31;100184.00;;;19.80;55.73
46223;BME280;31943;51.410;7.564;2023-07-20T08:25:57;100188.56;;;19.75;56.12
46223;BME280;31943;51.410;7.564;2023-07-20T08:28:23;100190.38;;;19.73;56.62
46223;BME280;31943;51.410;7.564;2023-07-20T08:30:49;100194.59;;;19.80;56.75
46223;BME280;31943;51.410;7.564;2023-07-20T08:33:17;100192.59;;;19.88;55.69
46223;BME280;31943;51.410;7.564;2023-07-20T08:35:43;100197.91;;;20.17;55.47
46223;BME280;31943;51.410;7.564;2023-07-20T08:38:09;100195.44;;;20.40;55.08
46223;BME280;31943;51.410;7.564;2023-07-20T08:40:41;100192.53;;;20.20;55.86
46223;BME280;31943;51.410;7.564;2023-07-20T08:43:08;100196.97;;;19.89;56.18
46223;BME280;31943;51.410;7.564;2023-07-20T08:45:34;100200.19;;;19.68;56.65
46223;BME280;31943;51.410;7.564;2023-07-20T08:48:03;100203.78;;;19.98;55.40
46223;BME280;31943;51.410;7.564;2023-07-20T08:50:31;100192.66;;;20.45;53.45
46223;BME280;31943;51.410;7.564;2023-07-20T08:52:58;100197.44;;;20.88;53.06
46223;BME280;31943;51.410;7.564;2023-07-20T08:55:25;100197.00;;;21.27;53.29
46223;BME280;31943;51.410;7.564;2023-07-20T08:57:54;100201.00;;;21.14;53.22
46223;BME280;31943;51.410;7.564;2023-07-20T09:00:21;100206.56;;;21.06;52.81
46223;BME280;31943;51.410;7.564;2023-07-20T09:02:50;100206.00;;;20.97;51.73
46223;BME280;31943;51.410;7.564;2023-07-20T09:05:16;100205.38;;;20.90;53.56
46223;BME280;31943;51.410;7.564;2023-07-20T09:07:41;100210.72;;;21.15;53.92
46223;BME280;31943;51.410;7.564;2023-07-20T09:10:08;100205.19;;;20.94;53.79
46223;BME280;31943;51.410;7.564;2023-07-20T09:12:35;100206.72;;;20.47;54.83
46223;BME280;31943;51.410;7.564;2023-07-20T09:15:03;100203.72;;;20.29;55.68
46223;BME280;31943;51.410;7.564;2023-07-20T09:17:29;100204.63;;;20.28;56.49
46223;BME280;31943;51.410;7.564;2023-07-20T09:19:55;100213.34;;;20.32;56.72
46223;BME280;31943;51.410;7.564;2023-07-20T09:22:21;100211.69;;;20.29;55.30
46223;BME280;31943;51.410;7.564;2023-07-20T09:24:47;100201.78;;;20.34;55.07
46223;BME280;31943;51.410;7.564;2023-07-20T09:27:13;100210.44;;;20.41;55.14
46223;BME280;31943;51.410;7.564;2023-07-20T09:29:47;100208.69;;;20.40;54.51
46223;BME280;31943;51.410;7.564;2023-07-20T09:32:18;100200.09;;;20.32;53.79
46223;BME280;31943;51.410;7.564;2023-07-20T09:34:44;100203.13;;;20.20;53.38
46223;BME280;31943;51.410;7.564;2023-07-20T09:37:10;100208.47;;;20.18;52.15
46223;BME280;31943;51.410;7.564;2023-07-20T09:39:42;100199.69;;;20.74;52.46
46223;BME280;31943;51.410;7.564;2023-07-20T09:42:08;100193.41;;;21.28;50.60
46223;BME280;31943;51.410;7.564;2023-07-20T09:44:34;100199.34;;;21.62;48.68
46223;BME280;31943;51.410;7.564;2023-07-20T09:47:03;100202.44;;;21.49;48.92
46223;BME280;31943;51.410;7.564;2023-07-20T09:49:30;100198.69;;;21.30;49.79
46223;BME280;31943;51.410;7.564;2023-07-20T09:51:57;100201.25;;;21.06;49.68
46223;BME280;31943;51.410;7.564;2023-07-20T09:54:24;100198.13;;;20.68;49.84
46223;BME280;31943;51.410;7.564;2023-07-20T09:56:52;100196.44;;;20.36;50.06
46223;BME280;31943;51.410;7.564;2023-07-20T09:59:18;100205.69;;;20.23;51.31
46223;BME280;31943;51.410;7.564;2023-07-20T10:01:46;100202.50;;;20.11;49.51
46223;BME280;31943;51.410;7.564;2023-07-20T10:04:13;100202.59;;;20.08;49.12
46223;BME280;31943;51.410;7.564;2023-07-20T10:06:42;100196.47;;;20.64;47.39
46223;BME280;31943;51.410;7.564;2023-07-20T10:09:12;100194.75;;;20.90;48.17
46223;BME280;31943;51.410;7.564;2023-07-20T10:11:43;100193.34;;;21.05;48.79
46223;BME280;31943;51.410;7.564;2023-07-20T10:14:12;100197.59;;;21.36;47.21
46223;BME280;31943;51.410;7.564;2023-07-20T10:16:48;100195.44;;;21.72;47.66
46223;BME280;31943;51.410;7.564;2023-07-20T10:19:19;100203.69;;;21.64;48.56
46223;BME280;31943;51.410;7.564;2023-07-20T10:21:55;100196.81;;;21.59;48.18
46223;BME280;31943;51.410;7.564;2023-07-20T10:24:23;100187.03;;;21.34;45.12
46223;BME280;31943;51.410;7.564;2023-07-20T10:26:49;100195.16;;;21.56;44.95
46223;BME280;31943;51.410;7.564;2023-07-20T10:29:15;100191.75;;;21.76;43.76
46223;BME280;31943;51.410;7.564;2023-07-20T10:31:42;100197.72;;;21.58;44.14
46223;BME280;31943;51.410;7.564;2023-07-20T10:34:08;100184.16;;;21.40;45.93
46223;BME280;31943;51.410;7.564;2023-07-20T10:36:43;100192.69;;;21.25;46.35
46223;BME280;31943;51.410;7.564;2023-07-20T10:39:22;100190.13;;;21.22;46.81
46223;BME280;31943;51.410;7.564;2023-07-20T10:41:47;100185.75;;;21.71;45.95
46223;BME280;31943;51.410;7.564;2023-07-20T10:44:19;100181.44;;;22.14;45.13
46223;BME280;31943;51.410;7.564;2023-07-20T10:46:46;100174.16;;;22.43;45.60
46223;BME280;31943;51.410;7.564;2023-07-20T10:49:12;100168.56;;;22.71;45.00
46223;BME280;31943;51.410;7.564;2023-07-20T10:51:39;100176.03;;;23.05;43.95
46223;BME280;31943;51.410;7.564;2023-07-20T10:54:08;100178.97;;;23.20;42.95
46223;BME280;31943;51.410;7.564;2023-07-20T10:56:36;100178.50;;;22.88;43.85
46223;BME280;31943;51.410;7.564;2023-07-20T10:59:17;100174.44;;;22.79;43.42
46223;BME280;31943;51.410;7.564;2023-07-20T11:01:44;100175.06;;;22.86;43.00
46223;BME280;31943;51.410;7.564;2023-07-20T11:04:10;100169.22;;;22.98;42.08
46223;BME280;31943;51.410;7.564;2023-07-20T11:06:36;100170.28;;;23.15;39.35
46223;BME280;31943;51.410;7.564;2023-07-20T11:09:09;100168.56;;;22.71;40.02
46223;BME280;31943;51.410;7.564;2023-07-20T11:11:38;100170.88;;;22.58;40.54
46223;BME280;31943;51.410;7.564;2023-07-20T11:14:05;100171.38;;;22.68;39.01
46223;BME280;31943;51.410;7.564;2023-07-20T11:16:38;100165.38;;;22.83;40.76
46223;BME280;31943;51.410;7.564;2023-07-20T11:19:05;100166.44;;;23.01;40.20
46223;BME280;31943;51.410;7.564;2023-07-20T11:21:36;100159.00;;;23.09;38.80
46223;BME280;31943;51.410;7.564;2023-07-20T11:24:03;100158.41;;;23.23;38.19
46223;BME280;31943;51.410;7.564;2023-07-20T11:26:30;100155.19;;;23.36;37.88
46223;BME280;31943;51.410;7.564;2023-07-20T11:28:58;100155.81;;;23.61;39.05
46223;BME280;31943;51.410;7.564;2023-07-20T11:31:24;100148.06;;;23.76;38.50
46223;BME280;31943;51.410;7.564;2023-07-20T11:33:49;100145.34;;;23.96;38.01
46223;BME280;31943;51.410;7.564;2023-07-20T11:36:15;100152.19;;;24.21;37.93
46223;BME280;31943;51.410;7.564;2023-07-20T11:38:45;100148.88;;;23.97;36.93
46223;BME280;31943;51.410;7.564;2023-07-20T11:41:12;100152.56;;;23.74;38.02
46223;BME280;31943;51.410;7.564;2023-07-20T11:43:40;100149.75;;;23.78;37.55
46223;BME280;31943;51.410;7.564;2023-07-20T11:46:08;100144.69;;;23.33;36.83
46223;BME280;31943;51.410;7.564;2023-07-20T11:48:34;100137.66;;;22.89;37.68
46223;BME280;31943;51.410;7.564;2023-07-20T11:51:01;100143.97;;;22.86;38.83
46223;BME280;31943;51.410;7.564;2023-07-20T11:53:28;100146.75;;;23.26;37.27
46223;BME280;31943;51.410;7.564;2023-07-20T11:55:54;100145.66;;;23.69;37.16
46223;BME280;31943;51.410;7.564;2023-07-20T11:58:20;100143.00;;;23.90;37.16
46223;BME280;31943;51.410;7.564;2023-07-20T12:00:46;100139.94;;;24.17;35.96
46223;BME280;31943;51.410;7.564;2023-07-20T12:03:13;100130.81;;;24.40;36.79
46223;BME280;31943;51.410;7.564;2023-07-20T12:05:39;100139.75;;;24.58;37.32
46223;BME280;31943;51.410;7.564;2023-07-20T12:08:05;100139.91;;;24.36;37.15
46223;BME280;31943;51.410;7.564;2023-07-20T12:10:31;100140.69;;;24.01;37.30
46223;BME280;31943;51.410;7.564;2023-07-20T12:13:01;100139.25;;;23.74;37.81
46223;BME280;31943;51.410;7.564;2023-07-20T12:15:27;100143.88;;;23.70;37.48
46223;BME280;31943;51.410;7.564;2023-07-20T12:17:55;100137.94;;;23.84;39.05
46223;BME280;31943;51.410;7.564;2023-07-20T12:20:27;100126.88;;;24.30;37.54
46223;BME280;31943;51.410;7.564;2023-07-20T12:22:58;100130.03;;;24.74;37.53
46223;BME280;31943;51.410;7.564;2023-07-20T12:25:41;100126.88;;;25.01;35.77
46223;BME280;31943;51.410;7.564;2023-07-20T12:28:10;100128.69;;;24.83;36.58
46223;BME280;31943;51.410;7.564;2023-07-20T12:30:36;100125.03;;;24.85;35.04
46223;BME280;31943;51.410;7.564;2023-07-20T12:33:02;100116.91;;;24.70;36.44
46223;BME280;31943;51.410;7.564;2023-07-20T12:35:31;100118.94;;;24.28;37.20
46223;BME280;31943;51.410;7.564;2023-07-20T12:37:57;100120.94;;;24.05;36.95
46223;BME280;31943;51.410;7.564;2023-07-20T12:40:23;100124.63;;;23.84;37.45
46223;BME280;31943;51.410;7.564;2023-07-20T12:42:50;100120.63;;;23.55;35.83
46223;BME280;31943;51.410;7.564;2023-07-20T12:45:17;100119.00;;;23.32;36.69
46223;BME280;31943;51.410;7.564;2023-07-20T12:47:43;100128.44;;;23.18;36.88
46223;BME280;31943;51.410;7.564;2023-07-20T12:50:09;100114.66;;;23.29;36.29
46223;BME280;31943;51.410;7.564;2023-07-20T12:52:38;100108.72;;;23.43;36.79
46223;BME280;31943;51.410;7.564;2023-07-20T12:55:05;100113.78;;;23.68;36.87